^^
Your Local Weather - Clay, NY Station Historical Data
Daily Summary for April 1, 2017 Units:  English    Metric   Both
« Previous Day
Next Day »
Daily Weekly Monthly Yearly Custom
  High: Low: Average:
Temperature: 40.3 °F 30.9 °F 36.1 °F
Dew Point: 36.8 °F 28.6 °F 33.2 °F
Humidity: 93% 84% 89%
Wind Speed: 5.0mph 0.0mph 2mph
Wind Gust: 10.0mph - -
Wind- - South
Pressure: 30.10 in 29.75 in -
Precipitation: 0.05 in    
Historical Graphs
 
 
Tabular Data for April 1, 2017
Time Temperature Dew Point Pressure Wind Wind Speed Wind Gust Humidity Rainfall Rate (Hourly) solar
00:00 34.8 °F 32.4 °F 29.75 in NE 4.0 mph 6.0 mph 91% 0.00 in 0 W/m2
00:06 34.8 °F 32.4 °F 29.75 in ENE 5.0 mph 7.0 mph 91% 0.00 in 0 W/m2
00:12 34.8 °F 32.4 °F 29.75 in East 5.0 mph 5.0 mph 91% 0.00 in 0 W/m2
00:18 34.8 °F 32.4 °F 29.76 in ENE 4.0 mph 5.0 mph 91% 0.00 in 0 W/m2
00:24 34.8 °F 32.4 °F 29.75 in ENE 4.0 mph 4.0 mph 91% 0.00 in 0 W/m2
00:30 34.8 °F 32.4 °F 29.76 in ENE 5.0 mph 5.0 mph 91% 0.00 in 0 W/m2
00:36 34.8 °F 32.4 °F 29.76 in ENE 4.0 mph 5.0 mph 91% 0.00 in 0 W/m2
00:42 34.8 °F 32.4 °F 29.76 in East 4.0 mph 4.0 mph 91% 0.00 in 0 W/m2
00:48 34.8 °F 32.4 °F 29.76 in ENE 4.0 mph 10.0 mph 91% 0.00 in 0 W/m2
00:54 34.8 °F 32.4 °F 29.76 in East 4.0 mph 4.0 mph 91% 0.00 in 0 W/m2
01:00 34.9 °F 32.5 °F 29.76 in ENE 4.0 mph 5.0 mph 91% 0.00 in 0 W/m2
01:12 34.9 °F 32.5 °F 29.76 in ESE 4.0 mph 4.0 mph 91% 0.00 in 0 W/m2
01:18 34.9 °F 32.5 °F 29.76 in ENE 4.0 mph 5.0 mph 91% 0.00 in 0 W/m2
01:24 34.9 °F 32.5 °F 29.76 in East 4.0 mph 8.0 mph 91% 0.00 in 0 W/m2
01:30 34.9 °F 32.3 °F 29.76 in ENE 5.0 mph 5.0 mph 90% 0.00 in 0 W/m2
01:36 34.9 °F 32.3 °F 29.76 in East 5.0 mph 6.0 mph 90% 0.00 in 0 W/m2
01:42 35.0 °F 32.4 °F 29.77 in East 5.0 mph 5.0 mph 90% 0.00 in 0 W/m2
01:48 35.0 °F 32.4 °F 29.77 in East 4.0 mph 8.0 mph 90% 0.00 in 0 W/m2
01:54 35.0 °F 32.4 °F 29.77 in East 4.0 mph 4.0 mph 90% 0.00 in 0 W/m2
02:00 35.0 °F 32.4 °F 29.77 in NE 5.0 mph 6.0 mph 90% 0.00 in 0 W/m2
02:06 35.0 °F 32.4 °F 29.77 in ENE 5.0 mph 6.0 mph 90% 0.00 in 0 W/m2
02:12 35.0 °F 32.4 °F 29.77 in ESE 4.0 mph 5.0 mph 90% 0.00 in 0 W/m2
02:18 34.9 °F 32.3 °F 29.77 in ENE 3.0 mph 5.0 mph 90% 0.00 in 0 W/m2
02:24 34.9 °F 32.3 °F 29.77 in East 3.0 mph 6.0 mph 90% 0.00 in 0 W/m2
02:30 34.8 °F 32.2 °F 29.77 in East 4.0 mph 4.0 mph 90% 0.00 in 0 W/m2
02:36 34.8 °F 32.2 °F 29.77 in ENE 4.0 mph 7.0 mph 90% 0.00 in 0 W/m2
02:42 34.8 °F 32.2 °F 29.77 in East 4.0 mph 7.0 mph 90% 0.00 in 0 W/m2
02:48 34.8 °F 32.2 °F 29.78 in East 3.0 mph 7.0 mph 90% 0.00 in 0 W/m2
02:54 34.7 °F 32.1 °F 29.78 in NE 2.0 mph 3.0 mph 90% 0.00 in 0 W/m2
03:00 34.7 °F 32.1 °F 29.78 in ENE 2.0 mph 3.0 mph 90% 0.00 in 0 W/m2
03:06 34.6 °F 32.0 °F 29.78 in East 3.0 mph 5.0 mph 90% 0.00 in 0 W/m2
03:12 34.6 °F 32.0 °F 29.78 in SE 2.0 mph 3.0 mph 90% 0.00 in 0 W/m2
03:18 34.5 °F 31.9 °F 29.78 in East 2.0 mph 4.0 mph 90% 0.00 in 0 W/m2
03:30 34.5 °F 31.9 °F 29.79 in ENE 2.0 mph 3.0 mph 90% 0.00 in 0 W/m2
03:36 34.5 °F 32.1 °F 29.79 in ENE 2.0 mph 3.0 mph 91% 0.00 in 0 W/m2
03:42 34.5 °F 32.1 °F 29.79 in ENE 3.0 mph 5.0 mph 91% 0.00 in 0 W/m2
03:48 34.5 °F 32.1 °F 29.79 in ENE 3.0 mph 5.0 mph 91% 0.00 in 0 W/m2
03:54 34.5 °F 32.1 °F 29.79 in SE 3.0 mph 3.0 mph 91% 0.00 in 0 W/m2
04:00 34.4 °F 32.0 °F 29.79 in ESE 2.0 mph 2.0 mph 91% 0.00 in 0 W/m2
04:06 34.4 °F 32.0 °F 29.79 in ENE 3.0 mph 7.0 mph 91% 0.00 in 0 W/m2
04:12 34.4 °F 32.0 °F 29.79 in East 3.0 mph 4.0 mph 91% 0.00 in 0 W/m2
04:18 34.4 °F 32.0 °F 29.80 in ENE 3.0 mph 4.0 mph 91% 0.00 in 0 W/m2
04:24 34.4 °F 32.0 °F 29.80 in SE 3.0 mph 4.0 mph 91% 0.00 in 0 W/m2
04:30 34.3 °F 31.9 °F 29.80 in ENE 3.0 mph 3.0 mph 91% 0.00 in 0 W/m2
04:36 34.3 °F 31.9 °F 29.80 in ESE 3.0 mph 3.0 mph 91% 0.00 in 0 W/m2
04:42 34.1 °F 31.7 °F 29.80 in SE 3.0 mph 3.0 mph 91% 0.00 in 0 W/m2
04:48 34.0 °F 31.6 °F 29.80 in East 3.0 mph 5.0 mph 91% 0.00 in 0 W/m2
04:54 33.9 °F 31.6 °F 29.80 in East 3.0 mph 3.0 mph 91% 0.00 in 0 W/m2
05:00 33.9 °F 31.8 °F 29.80 in East 1.0 mph 2.0 mph 92% 0.00 in 0 W/m2
05:06 33.9 °F 31.8 °F 29.81 in ENE 1.0 mph 2.0 mph 92% 0.00 in 0 W/m2
05:12 34.0 °F 31.9 °F 29.81 in ENE 1.0 mph 1.0 mph 92% 0.00 in 0 W/m2
05:18 34.0 °F 31.9 °F 29.81 in East 1.0 mph 1.0 mph 92% 0.00 in 0 W/m2
05:24 34.0 °F 31.9 °F 29.82 in NE 2.0 mph 2.0 mph 92% 0.00 in 0 W/m2
05:30 34.0 °F 31.9 °F 29.82 in ENE 2.0 mph 3.0 mph 92% 0.00 in 0 W/m2
05:36 34.1 °F 32.0 °F 29.82 in East 1.0 mph 3.0 mph 92% 0.00 in 0 W/m2
05:42 34.0 °F 31.9 °F 29.82 in East 1.0 mph 2.0 mph 92% 0.00 in 0 W/m2
05:48 34.1 °F 32.0 °F 29.82 in ENE 1.0 mph 3.0 mph 92% 0.00 in 0 W/m2
05:54 34.1 °F 32.0 °F 29.82 in East 1.0 mph 2.0 mph 92% 0.00 in 0 W/m2
06:00 34.0 °F 31.9 °F 29.83 in ENE 1.0 mph 1.0 mph 92% 0.00 in 0 W/m2
06:06 34.0 °F 31.9 °F 29.83 in East 2.0 mph 2.0 mph 92% 0.00 in 0 W/m2
06:12 34.0 °F 31.9 °F 29.83 in East 2.0 mph 3.0 mph 92% 0.00 in 0 W/m2
06:18 34.0 °F 31.9 °F 29.83 in ENE 2.0 mph 3.0 mph 92% 0.00 in 0 W/m2
06:24 33.9 °F 31.8 °F 29.83 in ENE 1.0 mph 2.0 mph 92% 0.00 in 0 W/m2
06:30 33.9 °F 31.8 °F 29.83 in ENE 1.0 mph 1.0 mph 92% 0.00 in 0 W/m2
06:36 33.9 °F 31.8 °F 29.84 in ENE 1.0 mph 1.0 mph 92% 0.00 in 0 W/m2
06:42 33.9 °F 31.8 °F 29.84 in NE 1.0 mph 3.0 mph 92% 0.00 in 0 W/m2
06:48 33.9 °F 31.8 °F 29.85 in NE 1.0 mph 3.0 mph 92% 0.00 in 0 W/m2
06:54 33.9 °F 31.8 °F 29.85 in Calm   1.0 mph 92% 0.00 in 0 W/m2
07:00 33.9 °F 31.8 °F 29.85 in Calm     92% 0.00 in 5 W/m2
07:06 34.0 °F 31.9 °F 29.86 in NE 1.0 mph 3.0 mph 92% 0.00 in 5 W/m2
07:12 34.0 °F 31.9 °F 29.86 in Calm   1.0 mph 92% 0.00 in 5 W/m2
07:18 34.0 °F 31.9 °F 29.86 in NE 1.0 mph 2.0 mph 92% 0.00 in 5 W/m2
07:24 34.1 °F 32.3 °F 29.87 in NE 1.0 mph 4.0 mph 93% 0.00 in 7 W/m2
07:30 34.2 °F 32.4 °F 29.87 in NE 1.0 mph 1.0 mph 93% 0.00 in 7 W/m2
07:36 34.3 °F 32.5 °F 29.87 in Calm   2.0 mph 93% 0.00 in 9 W/m2
07:42 34.3 °F 32.5 °F 29.87 in Calm   1.0 mph 93% 0.00 in 11 W/m2
07:48 34.3 °F 32.5 °F 29.88 in Calm   3.0 mph 93% 0.00 in 12 W/m2
07:54 34.4 °F 32.6 °F 29.88 in ENE 1.0 mph 1.0 mph 93% 0.00 in 14 W/m2
08:00 34.5 °F 32.7 °F 29.88 in Calm     93% 0.00 in 23 W/m2
08:06 34.5 °F 32.7 °F 29.88 in ENE 1.0 mph 3.0 mph 93% 0.00 in 33 W/m2
08:12 34.6 °F 32.8 °F 29.88 in South 1.0 mph 1.0 mph 93% 0.00 in 44 W/m2
08:18 34.8 °F 33.0 °F 29.89 in NNE 1.0 mph 3.0 mph 93% 0.00 in 49 W/m2
08:24 34.9 °F 33.1 °F 29.89 in NNE 1.0 mph 3.0 mph 93% 0.00 in 53 W/m2
08:30 35.0 °F 33.2 °F 29.90 in NNE 1.0 mph 2.0 mph 93% 0.00 in 51 W/m2
08:36 35.1 °F 33.3 °F 29.90 in NNE 1.0 mph 2.0 mph 93% 0.00 in 60 W/m2
08:42 35.2 °F 33.4 °F 29.90 in Calm   1.0 mph 93% 0.00 in 63 W/m2
08:48 35.4 °F 33.6 °F 29.91 in Calm   1.0 mph 93% 0.00 in 65 W/m2
08:54 35.5 °F 33.7 °F 29.91 in North 1.0 mph 5.0 mph 93% 0.00 in 62 W/m2
09:00 35.5 °F 33.7 °F 29.91 in NNE 2.0 mph 2.0 mph 93% 0.00 in 72 W/m2
09:06 35.7 °F 33.6 °F 29.91 in NNE 1.0 mph 2.0 mph 92% 0.00 in 83 W/m2
09:12 35.8 °F 33.7 °F 29.90 in NNE 2.0 mph 3.0 mph 92% 0.00 in 98 W/m2
09:18 35.8 °F 33.7 °F 29.90 in NE 2.0 mph 3.0 mph 92% 0.00 in 116 W/m2
09:24 36.1 °F 34.0 °F 29.91 in NE 1.0 mph 2.0 mph 92% 0.00 in 93 W/m2
09:30 36.1 °F 34.0 °F 29.91 in NNE 1.0 mph 1.0 mph 92% 0.00 in 97 W/m2
09:36 36.1 °F 34.0 °F 29.91 in NNE 1.0 mph 1.0 mph 92% 0.00 in 102 W/m2
09:42 36.3 °F 34.2 °F 29.91 in NNE 1.0 mph 1.0 mph 92% 0.00 in 105 W/m2
09:48 36.3 °F 34.2 °F 29.91 in Calm   1.0 mph 92% 0.00 in 130 W/m2
09:54 36.6 °F 34.5 °F 29.92 in Calm     92% 0.00 in 132 W/m2
10:00 36.7 °F 34.6 °F 29.92 in Calm   2.0 mph 92% 0.00 in 139 W/m2
10:06 36.9 °F 34.5 °F 29.93 in NNE 1.0 mph 2.0 mph 91% 0.00 in 144 W/m2
10:12 37.0 °F 34.6 °F 29.93 in North 1.0 mph 2.0 mph 91% 0.00 in 142 W/m2
10:18 37.1 °F 34.4 °F 29.93 in North 1.0 mph 2.0 mph 90% 0.00 in 139 W/m2
10:24 37.3 °F 34.6 °F 29.93 in NNE 1.0 mph 3.0 mph 90% 0.00 in 135 W/m2
10:30 37.6 °F 34.9 °F 29.93 in NNE 2.0 mph 2.0 mph 90% 0.00 in 207 W/m2
10:36 37.7 °F 35.0 °F 29.93 in NNE 1.0 mph 2.0 mph 90% 0.00 in 190 W/m2
10:40 37.7 °F 34.8 °F 29.93 in NNE 1.0 mph 1.0 mph 89% 0.00 in 200 W/m2
10:46 38.0 °F 35.0 °F 29.93 in NNE 1.0 mph 2.0 mph 89% 0.00 in 193 W/m2
10:52 38.2 °F 35.0 °F 29.93 in NNE 1.0 mph 1.0 mph 88% 0.00 in 220 W/m2
10:58 38.4 °F 35.2 °F 29.93 in Calm   1.0 mph 88% 0.00 in 144 W/m2
11:04 38.4 °F 34.9 °F 29.94 in Calm     87% 0.00 in 156 W/m2
11:10 38.6 °F 35.1 °F 29.93 in Calm     87% 0.00 in 174 W/m2
11:16 38.9 °F 35.4 °F 29.93 in Calm     87% 0.00 in 186 W/m2
11:22 38.9 °F 35.1 °F 29.93 in NNE 1.0 mph 1.0 mph 86% 0.00 in 190 W/m2
11:28 39.0 °F 35.2 °F 29.93 in NNE 1.0 mph 1.0 mph 86% 0.00 in 236 W/m2
11:34 39.1 °F 35.3 °F 29.93 in NNE 1.0 mph 2.0 mph 86% 0.00 in 200 W/m2
11:40 39.4 °F 35.6 °F 29.94 in NNE 1.0 mph 1.0 mph 86% 0.00 in 158 W/m2
11:46 39.4 °F 35.3 °F 29.94 in NNE 1.0 mph 1.0 mph 85% 0.00 in 104 W/m2
11:52 39.4 °F 35.3 °F 29.94 in Calm   1.0 mph 85% 0.00 in 95 W/m2
11:58 39.4 °F 35.3 °F 29.94 in NNE 1.0 mph 3.0 mph 85% 0.00 in 81 W/m2
12:04 39.4 °F 35.3 °F 29.95 in NW 1.0 mph 3.0 mph 85% 0.00 in 90 W/m2
12:10 39.5 °F 35.4 °F 29.95 in NNW 2.0 mph 3.0 mph 85% 0.00 in 109 W/m2
12:16 39.5 °F 35.4 °F 29.94 in NNW 2.0 mph 4.0 mph 85% 0.00 in 111 W/m2
12:22 39.5 °F 35.7 °F 29.94 in NW 2.0 mph 2.0 mph 86% 0.00 in 84 W/m2
12:28 39.4 °F 35.9 °F 29.94 in NW 1.0 mph 2.0 mph 87% 0.00 in 62 W/m2
12:34 39.4 °F 35.9 °F 29.94 in NW 1.0 mph 1.0 mph 87% 0.00 in 74 W/m2
12:40 39.3 °F 35.8 °F 29.94 in NW 1.0 mph 2.0 mph 87% 0.00 in 93 W/m2
12:46 39.2 °F 35.7 °F 29.94 in NW 2.0 mph 2.0 mph 87% 0.00 in 100 W/m2
12:52 39.1 °F 35.8 °F 29.94 in NNW 2.0 mph 5.0 mph 88% 0.00 in 93 W/m2
12:58 39.0 °F 35.7 °F 29.94 in NW 4.0 mph 8.0 mph 88% 0.00 in 105 W/m2
13:04 39.1 °F 35.8 °F 29.95 in NNW 3.0 mph 4.0 mph 88% 0.00 in 153 W/m2
13:10 39.5 °F 36.5 °F 29.95 in WNW 2.0 mph 3.0 mph 89% 0.00 in 146 W/m2
13:16 39.8 °F 36.5 °F 29.95 in North 2.0 mph 5.0 mph 88% 0.00 in 181 W/m2
13:22 40.0 °F 36.7 °F 29.96 in NW 3.0 mph 5.0 mph 88% 0.00 in 239 W/m2
13:28 40.1 °F 36.8 °F 29.96 in WNW 3.0 mph 5.0 mph 88% 0.00 in 267 W/m2
13:34 40.1 °F 36.5 °F 29.96 in NW 4.0 mph 7.0 mph 87% 0.00 in 253 W/m2
13:40 40.0 °F 36.2 °F 29.96 in NW 4.0 mph 5.0 mph 86% 0.00 in 216 W/m2
13:46 39.8 °F 36.0 °F 29.96 in NW 4.0 mph 5.0 mph 86% 0.00 in 244 W/m2
13:52 40.0 °F 36.2 °F 29.96 in NNW 4.0 mph 4.0 mph 86% 0.00 in 272 W/m2
13:58 40.0 °F 36.2 °F 29.96 in NW 4.0 mph 5.0 mph 86% 0.00 in 313 W/m2
14:04 40.2 °F 36.3 °F 29.96 in WNW 4.0 mph 4.0 mph 86% 0.00 in 338 W/m2
14:10 40.1 °F 36.2 °F 29.96 in NW 4.0 mph 4.0 mph 86% 0.00 in 316 W/m2
14:16 40.3 °F 36.7 °F 29.96 in WNW 4.0 mph 5.0 mph 87% 0.00 in 244 W/m2
14:22 39.8 °F 36.0 °F 29.96 in NNW 4.0 mph 5.0 mph 86% 0.00 in 237 W/m2
14:28 39.6 °F 35.8 °F 29.96 in NW 4.0 mph 5.0 mph 86% 0.00 in 243 W/m2
14:34 39.4 °F 35.6 °F 29.96 in NW 4.0 mph 7.0 mph 86% 0.00 in 218 W/m2
14:40 39.2 °F 35.4 °F 29.97 in NNW 4.0 mph 4.0 mph 86% 0.00 in 155 W/m2
14:46 38.9 °F 35.1 °F 29.97 in NW 4.0 mph 8.0 mph 86% 0.00 in 125 W/m2
14:52 38.6 °F 34.8 °F 29.97 in North 5.0 mph 6.0 mph 86% 0.00 in 144 W/m2
14:58 38.8 °F 35.3 °F 29.97 in NW 4.0 mph 6.0 mph 87% 0.00 in 128 W/m2
15:04 38.5 °F 35.0 °F 29.98 in NW 4.0 mph 6.0 mph 87% 0.00 in 148 W/m2
15:10 38.4 °F 34.9 °F 29.97 in NW 4.0 mph 4.0 mph 87% 0.00 in 149 W/m2
15:16 38.4 °F 34.9 °F 29.98 in West 3.0 mph 4.0 mph 87% 0.00 in 153 W/m2
15:22 38.2 °F 34.7 °F 29.98 in NNW 3.0 mph 3.0 mph 87% 0.00 in 171 W/m2
15:28 38.5 °F 35.3 °F 29.98 in WNW 3.0 mph 4.0 mph 88% 0.00 in 195 W/m2
15:34 38.5 °F 35.0 °F 29.98 in WNW 3.0 mph 6.0 mph 87% 0.00 in 211 W/m2
15:40 38.8 °F 35.3 °F 29.98 in NW 3.0 mph 4.0 mph 87% 0.00 in 188 W/m2
15:46 38.8 °F 34.7 °F 29.98 in NW 4.0 mph 6.0 mph 85% 0.00 in 176 W/m2
15:52 38.7 °F 34.6 °F 29.98 in NW 4.0 mph 5.0 mph 85% 0.00 in 123 W/m2
15:58 38.7 °F 34.6 °F 29.99 in NNW 4.0 mph 8.0 mph 85% 0.00 in 113 W/m2
16:04 38.3 °F 33.9 °F 29.99 in NW 4.0 mph 9.0 mph 84% 0.00 in 95 W/m2
16:10 38.1 °F 33.7 °F 29.99 in NNW 4.0 mph 4.0 mph 84% 0.00 in 84 W/m2
16:16 38.0 °F 33.9 °F 29.99 in NW 4.0 mph 4.0 mph 85% 0.00 in 107 W/m2
16:22 37.8 °F 33.7 °F 30.00 in NW 4.0 mph 4.0 mph 85% 0.00 in 91 W/m2
16:28 37.8 °F 33.7 °F 30.00 in NNW 4.0 mph 9.0 mph 85% 0.00 in 81 W/m2
16:34 37.7 °F 33.6 °F 30.00 in WNW 4.0 mph 5.0 mph 85% 0.00 in 69 W/m2
16:40 37.5 °F 33.7 °F 30.00 in North 4.0 mph 4.0 mph 86% 0.00 in 79 W/m2
16:46 37.3 °F 33.5 °F 30.00 in NW 4.0 mph 6.0 mph 86% 0.00 in 65 W/m2
16:52 37.2 °F 33.7 °F 30.00 in WNW 4.0 mph 4.0 mph 87% 0.00 in 58 W/m2
16:58 37.1 °F 33.6 °F 30.01 in NW 4.0 mph 4.0 mph 87% 0.00 in 54 W/m2
17:04 37.2 °F 33.7 °F 30.01 in WNW 3.0 mph 7.0 mph 87% 0.00 in 51 W/m2
17:10 37.2 °F 33.7 °F 30.02 in NW 3.0 mph 3.0 mph 87% 0.00 in 88 W/m2
17:16 37.3 °F 33.8 °F 30.02 in NW 3.0 mph 4.0 mph 87% 0.00 in 46 W/m2
17:22 37.3 °F 33.8 °F 30.02 in NW 2.0 mph 3.0 mph 87% 0.00 in 35 W/m2
17:28 37.2 °F 33.7 °F 30.02 in WNW 2.0 mph 4.0 mph 87% 0.00 in 32 W/m2
17:34 37.2 °F 33.4 °F 30.02 in WNW 3.0 mph 3.0 mph 86% 0.00 in 42 W/m2
17:40 37.3 °F 33.5 °F 30.03 in NW 3.0 mph 3.0 mph 86% 0.00 in 44 W/m2
17:46 37.3 °F 33.5 °F 30.04 in NNW 2.0 mph 3.0 mph 86% 0.00 in 33 W/m2
17:52 37.4 °F 33.6 °F 30.04 in WNW 2.0 mph 3.0 mph 86% 0.00 in 26 W/m2
17:58 37.3 °F 33.5 °F 30.04 in WNW 3.0 mph 6.0 mph 86% 0.00 in 21 W/m2
18:04 37.3 °F 33.5 °F 30.04 in NW 3.0 mph 3.0 mph 86% 0.00 in 25 W/m2
18:10 37.4 °F 33.6 °F 30.04 in WNW 2.0 mph 2.0 mph 86% 0.00 in 23 W/m2
18:16 37.4 °F 33.6 °F 30.05 in WNW 1.0 mph 2.0 mph 86% 0.00 in 21 W/m2
18:22 37.4 °F 33.6 °F 30.05 in NW 1.0 mph 3.0 mph 86% 0.00 in 30 W/m2
18:28 37.5 °F 33.7 °F 30.05 in NNW 2.0 mph 3.0 mph 86% 0.00 in 25 W/m2
18:34 37.5 °F 33.7 °F 30.05 in WNW 1.0 mph 2.0 mph 86% 0.00 in 21 W/m2
18:40 37.6 °F 33.8 °F 30.05 in NW 1.0 mph 3.0 mph 86% 0.00 in 16 W/m2
18:46 37.6 °F 33.5 °F 30.05 in West 1.0 mph 3.0 mph 85% 0.00 in 9 W/m2
18:52 37.5 °F 33.4 °F 30.05 in WNW 2.0 mph 5.0 mph 85% 0.00 in 5 W/m2
18:58 37.5 °F 33.4 °F 30.05 in NW 2.0 mph 5.0 mph 85% 0.00 in 0 W/m2
19:04 37.5 °F 33.4 °F 30.05 in WNW 1.0 mph 2.0 mph 85% 0.00 in 0 W/m2
19:10 37.4 °F 33.3 °F 30.06 in NW 1.0 mph 1.0 mph 85% 0.00 in 0 W/m2
19:16 37.4 °F 33.3 °F 30.06 in WNW 1.0 mph 5.0 mph 85% 0.00 in 0 W/m2
19:22 37.4 °F 33.3 °F 30.06 in WNW 1.0 mph 1.0 mph 85% 0.00 in 0 W/m2
19:28 37.3 °F 33.2 °F 30.06 in WNW 1.0 mph 1.0 mph 85% 0.00 in 0 W/m2
19:34 37.4 °F 33.3 °F 30.06 in WNW 1.0 mph 3.0 mph 85% 0.00 in 0 W/m2
19:40 37.3 °F 33.5 °F 30.06 in WNW 1.0 mph 2.0 mph 86% 0.00 in 0 W/m2
19:46 37.3 °F 33.5 °F 30.06 in WNW 1.0 mph 2.0 mph 86% 0.00 in 0 W/m2
19:52 37.2 °F 33.4 °F 30.06 in WNW 1.0 mph 2.0 mph 86% 0.00 in 0 W/m2
19:58 37.2 °F 33.7 °F 30.06 in NW 1.0 mph 2.0 mph 87% 0.00 in 0 W/m2
20:04 37.1 °F 33.6 °F 30.06 in NW 2.0 mph 2.0 mph 87% 0.00 in 0 W/m2
20:10 37.1 °F 33.6 °F 30.06 in NW 1.0 mph 2.0 mph 87% 0.00 in 0 W/m2
20:16 37.0 °F 33.5 °F 30.06 in WNW 2.0 mph 3.0 mph 87% 0.00 in 0 W/m2
20:22 36.9 °F 33.4 °F 30.07 in WNW 2.0 mph 5.0 mph 87% 0.00 in 0 W/m2
20:28 36.9 °F 33.7 °F 30.07 in WNW 2.0 mph 5.0 mph 88% 0.00 in 0 W/m2
20:34 36.8 °F 33.6 °F 30.07 in WNW 1.0 mph 2.0 mph 88% 0.00 in 0 W/m2
20:40 36.8 °F 33.6 °F 30.07 in WSW 1.0 mph 1.0 mph 88% 0.00 in 0 W/m2
20:46 36.6 °F 33.4 °F 30.07 in WSW 1.0 mph 2.0 mph 88% 0.00 in 0 W/m2
20:52 36.4 °F 33.2 °F 30.07 in Calm   1.0 mph 88% 0.00 in 0 W/m2
20:58 36.2 °F 33.0 °F 30.07 in Calm   2.0 mph 88% 0.00 in 0 W/m2
21:04 35.9 °F 32.7 °F 30.07 in Calm     88% 0.00 in 0 W/m2
21:10 35.7 °F 32.5 °F 30.07 in Calm     88% 0.00 in 0 W/m2
21:16 35.4 °F 32.5 °F 30.07 in Calm     89% 0.00 in 0 W/m2
21:22 35.0 °F 32.1 °F 30.07 in Calm     89% 0.00 in 0 W/m2
21:30 34.6 °F 31.4 °F 30.07 in Calm     88% 0.00 in 0 W/m2
21:36 34.2 °F 31.3 °F 30.08 in Calm     89% 0.00 in 0 W/m2
21:42 33.9 °F 31.0 °F 30.08 in Calm     89% 0.00 in 0 W/m2
21:48 33.7 °F 30.8 °F 30.08 in Calm     89% 0.00 in 0 W/m2
21:54 33.4 °F 30.5 °F 30.08 in Calm     89% 0.00 in 0 W/m2
22:00 33.2 °F 30.3 °F 30.08 in Calm     89% 0.00 in 0 W/m2
22:06 33.0 °F 30.1 °F 30.08 in Calm     89% 0.00 in 0 W/m2
22:12 33.1 °F 30.5 °F 30.08 in Calm     90% 0.00 in 0 W/m2
22:24 33.0 °F 30.4 °F 30.09 in Calm     90% 0.00 in 0 W/m2
22:30 32.8 °F 30.2 °F 30.09 in Calm     90% 0.00 in 0 W/m2
22:36 32.6 °F 30.0 °F 30.10 in Calm     90% 0.00 in 0 W/m2
22:42 32.4 °F 30.1 °F 30.10 in Calm     91% 0.00 in 0 W/m2
22:48 32.3 °F 30.0 °F 30.10 in Calm     91% 0.00 in 0 W/m2
22:54 32.1 °F 29.8 °F 30.10 in Calm     91% 0.00 in 0 W/m2
23:00 31.7 °F 29.1 °F 30.10 in Calm     90% 0.00 in 0 W/m2
23:06 31.4 °F 29.1 °F 30.10 in Calm     91% 0.00 in 0 W/m2
23:12 31.3 °F 29.0 °F 30.10 in Calm     91% 0.00 in 0 W/m2
23:18 31.1 °F 28.8 °F 30.10 in Calm     91% 0.00 in 0 W/m2
23:24 31.0 °F 28.7 °F 30.10 in Calm     91% 0.00 in 0 W/m2
23:30 30.9 °F 28.6 °F 30.10 in Calm     91% 0.00 in 0 W/m2
23:36 30.9 °F 28.6 °F 30.10 in Calm     91% 0.00 in 0 W/m2
23:42 31.0 °F 28.7 °F 30.10 in Calm     91% 0.00 in 0 W/m2
23:48 31.1 °F 28.8 °F 30.10 in Calm     91% 0.00 in 0 W/m2
23:54 31.3 °F 29.2 °F 30.10 in Calm     92% 0.00 in 0 W/m2
Country Meadow, Clay, NY, USA
Compliments of Weather Underground - 2 mb